createdAt,value
2016-11-29T00:00:13.372Z,-2.24
2016-11-29T00:01:13.353Z,-2.23
2016-11-29T00:02:13.335Z,-2.35
2016-11-29T00:03:13.318Z,-2.29
2016-11-29T00:04:13.303Z,-2.29
2016-11-29T00:05:13.286Z,-2.2
2016-11-29T00:06:13.269Z,-2.27
2016-11-29T00:07:13.257Z,-2.27
2016-11-29T00:08:13.238Z,-2.27
2016-11-29T00:09:13.220Z,-2.32
2016-11-29T00:10:13.198Z,-2.32
2016-11-29T00:11:13.188Z,-2.27
2016-11-29T00:12:13.164Z,-2.35
2016-11-29T00:13:13.149Z,-2.34
2016-11-29T00:14:13.136Z,-2.39
2016-11-29T00:15:13.122Z,-2.39
2016-11-29T00:16:13.096Z,-2.35
2016-11-29T00:17:13.077Z,-2.49
2016-11-29T00:18:13.367Z,-2.4
2016-11-29T00:19:13.045Z,-2.43
2016-11-29T00:20:13.025Z,-2.39
2016-11-29T00:21:13.013Z,-2.42
2016-11-29T00:22:13.003Z,-2.49
2016-11-29T00:23:12.979Z,-2.43
2016-11-29T00:24:12.966Z,-2.52
2016-11-29T00:25:12.965Z,-2.46
2016-11-29T00:26:12.927Z,-2.45
2016-11-29T00:27:12.906Z,-2.42
2016-11-29T00:28:13.193Z,-2.43
2016-11-29T00:29:12.880Z,-2.49
2016-11-29T00:30:12.862Z,-2.46
2016-11-29T00:31:12.844Z,-2.45
2016-11-29T00:32:12.830Z,-2.53
2016-11-29T00:33:12.814Z,-2.49
2016-11-29T00:34:12.793Z,-2.49
2016-11-29T00:35:12.773Z,-2.5
2016-11-29T00:36:12.757Z,-2.55
2016-11-29T00:37:12.746Z,-2.48
2016-11-29T00:38:12.724Z,-2.55
2016-11-29T00:39:12.707Z,-2.49
2016-11-29T00:40:12.686Z,-2.55
2016-11-29T00:41:12.673Z,-2.56
2016-11-29T00:42:12.656Z,-2.58
2016-11-29T00:43:12.640Z,-2.66
2016-11-29T00:44:12.628Z,-2.58
2016-11-29T00:45:12.603Z,-2.61
2016-11-29T00:46:12.583Z,-2.61
2016-11-29T00:47:12.569Z,-2.58
2016-11-29T00:48:12.549Z,-2.58
2016-11-29T00:49:12.539Z,-2.6
2016-11-29T00:50:12.519Z,-2.63
2016-11-29T00:51:12.499Z,-2.61
2016-11-29T00:52:12.479Z,-2.6
2016-11-29T00:53:12.465Z,-2.67
2016-11-29T00:54:12.450Z,-2.63
2016-11-29T00:55:12.431Z,-2.6
2016-11-29T00:56:12.416Z,-2.64
2016-11-29T00:57:12.394Z,-2.6
2016-11-29T00:58:12.679Z,-2.63
2016-11-29T00:59:12.366Z,-2.66
2016-11-29T01:00:12.343Z,-2.67
2016-11-29T01:01:12.327Z,-2.64
2016-11-29T01:02:12.310Z,-2.66
2016-11-29T01:03:12.293Z,-2.67
2016-11-29T01:04:12.284Z,-2.77
2016-11-29T01:05:12.257Z,-2.71
2016-11-29T01:06:12.243Z,-2.74
2016-11-29T01:07:12.222Z,-2.77
2016-11-29T01:08:12.207Z,-2.71
2016-11-29T01:09:12.189Z,-2.71
2016-11-29T01:10:12.176Z,-2.73
2016-11-29T01:11:12.152Z,-2.73
2016-11-29T01:12:12.136Z,-2.64
2016-11-29T01:13:12.116Z,-2.74
2016-11-29T01:14:12.106Z,-2.61
2016-11-29T01:15:12.083Z,-2.73
2016-11-29T01:16:12.067Z,-2.66
2016-11-29T01:17:12.046Z,-2.82
2016-11-29T01:18:12.034Z,-2.56
2016-11-29T01:19:12.017Z,-2.6
2016-11-29T01:20:12.298Z,-2.63
2016-11-29T01:21:12.002Z,-2.73
2016-11-29T01:22:11.963Z,-2.66
2016-11-29T01:23:11.939Z,-2.78
2016-11-29T01:24:12.230Z,-2.77
2016-11-29T01:25:11.910Z,-2.66
2016-11-29T01:26:11.890Z,-2.71
2016-11-29T01:27:11.878Z,-2.71
2016-11-29T01:28:11.859Z,-2.71
2016-11-29T01:29:11.840Z,-2.74
2016-11-29T01:30:11.819Z,-2.74
2016-11-29T01:31:11.809Z,-2.7
2016-11-29T01:32:11.786Z,-2.73
2016-11-29T01:33:11.772Z,-2.77
2016-11-29T01:34:11.755Z,-2.67
2016-11-29T01:35:12.039Z,-2.77
2016-11-29T01:36:11.720Z,-2.68
2016-11-29T01:37:11.710Z,-2.79
2016-11-29T01:38:11.688Z,-2.77
2016-11-29T01:39:11.663Z,-2.78
2016-11-29T01:40:11.645Z,-2.82
2016-11-29T01:41:11.636Z,-2.79
2016-11-29T01:42:11.614Z,-2.77
2016-11-29T01:43:11.899Z,-2.82
2016-11-29T01:44:11.582Z,-2.81
2016-11-29T01:45:11.564Z,-2.81
2016-11-29T01:46:11.548Z,-2.81
2016-11-29T01:47:11.526Z,-2.81
2016-11-29T01:48:11.515Z,-2.82
2016-11-29T01:49:11.496Z,-2.91
2016-11-29T01:50:11.483Z,-2.79
2016-11-29T01:51:11.458Z,-2.74
2016-11-29T01:52:11.451Z,-2.86
2016-11-29T01:53:11.425Z,-2.86
2016-11-29T01:54:11.402Z,-2.78
2016-11-29T01:55:11.385Z,-2.84
2016-11-29T01:56:11.365Z,-2.77
2016-11-29T01:57:11.355Z,-2.88
2016-11-29T01:58:11.336Z,-2.89
2016-11-29T01:59:11.316Z,-2.86
2016-11-29T02:00:11.299Z,-2.89
2016-11-29T02:01:11.280Z,-2.85
2016-11-29T02:02:11.267Z,-2.84
2016-11-29T02:03:11.252Z,-2.89
2016-11-29T02:04:11.234Z,-2.86
2016-11-29T02:05:11.218Z,-2.91
2016-11-29T02:06:11.194Z,-2.84
2016-11-29T02:07:11.179Z,-2.81
2016-11-29T02:08:11.161Z,-2.89
2016-11-29T02:09:11.151Z,-2.85
2016-11-29T02:10:11.132Z,-2.79
2016-11-29T02:11:11.111Z,-2.84
2016-11-29T02:12:11.094Z,-2.91
2016-11-29T02:13:11.073Z,-2.85
2016-11-29T02:14:11.060Z,-2.92
2016-11-29T02:15:11.042Z,-2.91
2016-11-29T02:16:11.057Z,-2.85
2016-11-29T02:17:11.009Z,-2.88
2016-11-29T02:18:10.985Z,-2.89
2016-11-29T02:19:10.969Z,-2.91
2016-11-29T02:20:10.953Z,-2.86
2016-11-29T02:21:10.939Z,-2.89
2016-11-29T02:22:10.925Z,-2.88
2016-11-29T02:23:10.896Z,-2.88
2016-11-29T02:24:10.883Z,-2.88
2016-11-29T02:25:10.861Z,-2.89
2016-11-29T02:26:10.846Z,-2.85
2016-11-29T02:27:10.837Z,-2.91
2016-11-29T02:28:10.810Z,-2.94
2016-11-29T02:29:10.804Z,-2.96
2016-11-29T02:30:10.779Z,-2.88
2016-11-29T02:31:10.760Z,-2.91
2016-11-29T02:32:10.741Z,-2.86
2016-11-29T02:33:10.719Z,-2.86
2016-11-29T02:34:11.005Z,-2.94
2016-11-29T02:35:10.689Z,-2.91
2016-11-29T02:36:10.977Z,-2.91
2016-11-29T02:37:10.655Z,-2.91
2016-11-29T02:38:10.641Z,-2.86
2016-11-29T02:39:10.621Z,-2.88
2016-11-29T02:40:10.600Z,-2.88
2016-11-29T02:41:10.592Z,-2.89
2016-11-29T02:42:10.568Z,-2.91
2016-11-29T02:43:10.546Z,-2.94
2016-11-29T02:44:10.540Z,-2.94
2016-11-29T02:45:10.509Z,-2.88
2016-11-29T02:46:10.493Z,-2.85
2016-11-29T02:47:10.481Z,-2.92
2016-11-29T02:48:10.456Z,-2.99
2016-11-29T02:49:10.445Z,-2.88
2016-11-29T02:50:10.456Z,-2.86
2016-11-29T02:51:10.412Z,-3
2016-11-29T02:52:10.388Z,-2.88
2016-11-29T02:53:10.379Z,-2.91
2016-11-29T02:54:10.350Z,-2.91
2016-11-29T02:55:10.340Z,-2.88
2016-11-29T02:56:10.316Z,-2.86
2016-11-29T02:57:10.300Z,-2.88
2016-11-29T02:58:10.282Z,-2.96
2016-11-29T02:59:10.269Z,-2.92
2016-11-29T03:00:10.249Z,-2.92
2016-11-29T03:01:10.231Z,-2.85
2016-11-29T03:02:10.216Z,-2.94
2016-11-29T03:03:10.199Z,-2.89
2016-11-29T03:04:10.176Z,-2.92
2016-11-29T03:05:10.165Z,-2.85
2016-11-29T03:06:10.141Z,-2.91
2016-11-29T03:07:10.128Z,-2.86
2016-11-29T03:08:10.107Z,-2.82
2016-11-29T03:09:10.088Z,-2.78
2016-11-29T03:10:10.098Z,-2.92
2016-11-29T03:11:10.056Z,-2.84
2016-11-29T03:12:10.037Z,-2.85
2016-11-29T03:13:10.020Z,-2.84
2016-11-29T03:14:10.299Z,-2.77
2016-11-29T03:15:09.991Z,-2.85
2016-11-29T03:16:09.971Z,-2.86
2016-11-29T03:17:09.950Z,-2.91
2016-11-29T03:18:09.934Z,-2.85
2016-11-29T03:19:09.910Z,-2.89
2016-11-29T03:20:09.898Z,-2.81
2016-11-29T03:21:09.882Z,-2.91
2016-11-29T03:22:09.862Z,-2.91
2016-11-29T03:23:09.849Z,-2.92
2016-11-29T03:24:09.829Z,-2.89
2016-11-29T03:25:09.811Z,-2.89
2016-11-29T03:26:09.790Z,-2.88
2016-11-29T03:27:09.779Z,-2.91
2016-11-29T03:28:09.759Z,-2.94
2016-11-29T03:29:09.735Z,-2.88
2016-11-29T03:30:09.727Z,-2.94
2016-11-29T03:31:09.709Z,-2.88
2016-11-29T03:32:09.687Z,-2.92
2016-11-29T03:33:09.666Z,-2.91
2016-11-29T03:34:09.651Z,-2.88
2016-11-29T03:35:09.636Z,-2.91
2016-11-29T03:36:09.615Z,-2.85
2016-11-29T03:37:09.598Z,-2.91
2016-11-29T03:38:09.581Z,-2.89
2016-11-29T03:39:09.560Z,-2.88
2016-11-29T03:40:09.547Z,-2.86
2016-11-29T03:41:09.529Z,-2.99
2016-11-29T03:42:09.508Z,-2.91
2016-11-29T03:43:09.497Z,-2.88
2016-11-29T03:44:09.477Z,-2.92
2016-11-29T03:45:09.461Z,-2.94
2016-11-29T03:46:09.444Z,-2.99
2016-11-29T03:47:09.420Z,-2.88
2016-11-29T03:48:09.406Z,-2.89
2016-11-29T03:49:09.391Z,-2.96
2016-11-29T03:50:09.371Z,-2.96
2016-11-29T03:51:09.351Z,-2.96
2016-11-29T03:52:09.343Z,-2.99
2016-11-29T03:53:09.316Z,-2.96
2016-11-29T03:54:09.298Z,-2.97
2016-11-29T03:55:09.297Z,-3
2016-11-29T03:56:09.269Z,-3
2016-11-29T03:57:09.247Z,-3.03
2016-11-29T03:58:09.230Z,-3.06
2016-11-29T03:59:09.211Z,-2.89
2016-11-29T04:00:09.196Z,-2.99
2016-11-29T04:01:09.180Z,-3
2016-11-29T04:02:09.159Z,-3
2016-11-29T04:03:09.136Z,-3.05
2016-11-29T04:04:09.127Z,-3.05
2016-11-29T04:05:09.106Z,-2.94
2016-11-29T04:06:09.090Z,-2.99
2016-11-29T04:07:09.072Z,-3.02
2016-11-29T04:08:09.052Z,-3.03
2016-11-29T04:09:09.344Z,-3.03
2016-11-29T04:10:09.018Z,-3.03
2016-11-29T04:11:09.004Z,-3.02
2016-11-29T04:12:08.979Z,-3.03
2016-11-29T04:13:08.966Z,-3.05
2016-11-29T04:14:08.954Z,-3.02
2016-11-29T04:15:08.933Z,-3.07
2016-11-29T04:16:10.113Z,-3.05
2016-11-29T04:17:08.896Z,-3.06
2016-11-29T04:18:08.879Z,-3.03
2016-11-29T04:19:08.863Z,-3
2016-11-29T04:20:08.855Z,-2.97
2016-11-29T04:21:08.826Z,-3
2016-11-29T04:22:08.809Z,-3.07
2016-11-29T04:23:08.795Z,-3.03
2016-11-29T04:24:08.782Z,-3.06
2016-11-29T04:25:08.759Z,-3.05
2016-11-29T04:26:08.777Z,-3.05
2016-11-29T04:27:08.723Z,-3.07
2016-11-29T04:28:08.708Z,-3.03
2016-11-29T04:29:08.689Z,-3.05
2016-11-29T04:30:08.672Z,-3.05
2016-11-29T04:31:08.657Z,-3.02
2016-11-29T04:32:08.649Z,-3.03
2016-11-29T04:33:08.617Z,-3.06
2016-11-29T04:34:08.603Z,-3.03
2016-11-29T04:35:08.582Z,-3.03
2016-11-29T04:36:08.567Z,-3.02
2016-11-29T04:37:08.547Z,-3.03
2016-11-29T04:38:08.531Z,-3.06
2016-11-29T04:39:08.517Z,-3.15
2016-11-29T04:40:08.497Z,-3.09
2016-11-29T04:41:08.480Z,-3.03
2016-11-29T04:42:08.491Z,-3.06
2016-11-29T04:43:08.449Z,-3.07
2016-11-29T04:44:08.426Z,-3.15
2016-11-29T04:45:08.435Z,-3.09
2016-11-29T04:46:08.391Z,-3.12
2016-11-29T04:47:08.377Z,-3.05
2016-11-29T04:48:08.359Z,-3.09
2016-11-29T04:49:08.338Z,-3.06
2016-11-29T04:50:08.348Z,-3.06
2016-11-29T04:51:08.306Z,-3.03
2016-11-29T04:52:08.286Z,-2.99
2016-11-29T04:53:08.270Z,-3.05
2016-11-29T04:54:08.251Z,-3.03
2016-11-29T04:55:08.234Z,-3.05
2016-11-29T04:56:08.214Z,-3.03
2016-11-29T04:57:08.198Z,-3.1
2016-11-29T04:58:08.182Z,-3.09
2016-11-29T04:59:08.161Z,-3.07
2016-11-29T05:00:08.148Z,-3.09
2016-11-29T05:01:08.126Z,-3.06
2016-11-29T05:02:08.110Z,-3.09
2016-11-29T05:03:08.088Z,-3.12
2016-11-29T05:04:08.079Z,-3.14
2016-11-29T05:05:08.059Z,-3.03
2016-11-29T05:06:08.041Z,-3.02
2016-11-29T05:07:08.018Z,-3.03
2016-11-29T05:08:08.005Z,-3.09
2016-11-29T05:09:07.985Z,-3.09
2016-11-29T05:10:07.971Z,-3.12
2016-11-29T05:11:07.950Z,-3.07
2016-11-29T05:12:07.934Z,-3.03
2016-11-29T05:13:07.914Z,-3.05
2016-11-29T05:14:07.900Z,-3
2016-11-29T05:15:07.883Z,-2.99
2016-11-29T05:16:07.882Z,-2.96
2016-11-29T05:17:07.842Z,-3
2016-11-29T05:18:07.831Z,-3
2016-11-29T05:19:07.815Z,-2.91
2016-11-29T05:20:07.789Z,-2.96
2016-11-29T05:21:07.774Z,-3
2016-11-29T05:22:08.056Z,-2.92
2016-11-29T05:23:07.741Z,-2.86
2016-11-29T05:24:07.727Z,-2.94
2016-11-29T05:25:07.704Z,-2.94
2016-11-29T05:26:07.686Z,-2.89
2016-11-29T05:27:07.676Z,-2.89
2016-11-29T05:28:07.652Z,-2.88
2016-11-29T05:29:07.632Z,-2.79
2016-11-29T05:30:07.617Z,-2.86
2016-11-29T05:31:07.901Z,-2.79
2016-11-29T05:32:07.582Z,-2.84
2016-11-29T05:33:07.562Z,-2.85
2016-11-29T05:34:07.550Z,-2.91
2016-11-29T05:35:07.527Z,-2.89
2016-11-29T05:36:07.514Z,-2.85
2016-11-29T05:37:07.494Z,-2.78
2016-11-29T05:38:07.775Z,-2.78
2016-11-29T05:39:07.484Z,-2.82
2016-11-29T05:40:07.442Z,-2.79
2016-11-29T05:41:07.422Z,-2.81
2016-11-29T05:42:07.705Z,-2.74
2016-11-29T05:43:07.382Z,-2.7
2016-11-29T05:44:07.371Z,-2.78
2016-11-29T05:45:07.351Z,-2.7
2016-11-29T05:46:07.341Z,-2.67
2016-11-29T05:47:07.313Z,-2.67
2016-11-29T05:48:07.294Z,-2.73
2016-11-29T05:49:07.277Z,-2.6
2016-11-29T05:50:07.263Z,-2.73
2016-11-29T05:51:07.245Z,-2.68
2016-11-29T05:52:07.252Z,-2.64
2016-11-29T05:53:07.208Z,-2.7
2016-11-29T05:54:07.195Z,-2.66
2016-11-29T05:55:07.174Z,-2.78
2016-11-29T05:56:07.157Z,-2.61
2016-11-29T05:57:07.146Z,-2.68
2016-11-29T05:58:07.127Z,-2.68
2016-11-29T05:59:07.110Z,-2.78
2016-11-29T06:00:07.096Z,-2.63
2016-11-29T06:01:07.080Z,-2.66
2016-11-29T06:02:07.055Z,-2.61
2016-11-29T06:03:07.033Z,-2.64
2016-11-29T06:04:07.015Z,-2.64
2016-11-29T06:05:06.999Z,-2.63
2016-11-29T06:06:06.983Z,-2.63
2016-11-29T06:07:06.967Z,-2.58
2016-11-29T06:08:06.945Z,-2.64
2016-11-29T06:09:06.929Z,-2.6
2016-11-29T06:10:06.917Z,-2.66
2016-11-29T06:11:06.899Z,-2.58
2016-11-29T06:12:06.880Z,-2.64
2016-11-29T06:13:06.860Z,-2.56
2016-11-29T06:14:06.839Z,-2.53
2016-11-29T06:15:06.825Z,-2.55
2016-11-29T06:16:06.810Z,-2.49
2016-11-29T06:17:06.795Z,-2.6
2016-11-29T06:18:06.778Z,-2.61
2016-11-29T06:19:06.751Z,-2.56
2016-11-29T06:20:07.034Z,-2.61
2016-11-29T06:21:06.751Z,-2.58
2016-11-29T06:22:06.704Z,-2.66
2016-11-29T06:23:06.685Z,-2.58
2016-11-29T06:24:06.670Z,-2.64
2016-11-29T06:25:06.654Z,-2.55
2016-11-29T06:26:06.631Z,-2.61
2016-11-29T06:27:06.611Z,-2.58
2016-11-29T06:28:06.593Z,-2.61
2016-11-29T06:29:06.579Z,-2.61
2016-11-29T06:30:06.563Z,-2.58
2016-11-29T06:31:06.544Z,-2.56
2016-11-29T06:32:06.528Z,-2.61
2016-11-29T06:33:06.518Z,-2.61
2016-11-29T06:34:06.490Z,-2.56
2016-11-29T06:35:06.500Z,-2.64
2016-11-29T06:36:06.460Z,-2.63
2016-11-29T06:37:06.438Z,-2.58
2016-11-29T06:38:06.426Z,-2.56
2016-11-29T06:39:06.405Z,-2.61
2016-11-29T06:40:06.391Z,-2.55
2016-11-29T06:41:06.368Z,-2.6
2016-11-29T06:42:06.358Z,-2.55
2016-11-29T06:43:06.338Z,-2.55
2016-11-29T06:44:06.317Z,-2.64
2016-11-29T06:45:06.304Z,-2.53
2016-11-29T06:46:06.290Z,-2.5
2016-11-29T06:47:06.266Z,-2.53
2016-11-29T06:48:06.253Z,-2.53
2016-11-29T06:49:06.237Z,-2.49
2016-11-29T06:50:06.219Z,-2.48
2016-11-29T06:51:06.196Z,-2.46
2016-11-29T06:52:06.175Z,-2.52
2016-11-29T06:53:06.168Z,-2.5
2016-11-29T06:54:06.146Z,-2.48
2016-11-29T06:55:06.134Z,-2.55
2016-11-29T06:56:06.114Z,-2.55
2016-11-29T06:57:06.395Z,-2.42
2016-11-29T06:58:06.073Z,-2.42
2016-11-29T06:59:06.057Z,-2.52
2016-11-29T07:00:06.040Z,-2.37
2016-11-29T07:01:06.021Z,-2.46
2016-11-29T07:02:06.007Z,-2.42
2016-11-29T07:03:05.996Z,-2.43
2016-11-29T07:04:05.968Z,-2.48
2016-11-29T07:05:05.957Z,-2.45
2016-11-29T07:06:05.935Z,-2.52
2016-11-29T07:07:05.919Z,-2.46
2016-11-29T07:08:05.895Z,-2.42
2016-11-29T07:09:05.883Z,-2.45
2016-11-29T07:10:05.869Z,-2.42
2016-11-29T07:11:05.848Z,-2.39
2016-11-29T07:12:06.131Z,-2.32
2016-11-29T07:13:05.815Z,-2.34
2016-11-29T07:14:05.799Z,-2.3
2016-11-29T07:15:05.783Z,-2.32
2016-11-29T07:16:05.764Z,-2.34
2016-11-29T07:17:05.781Z,-2.35
2016-11-29T07:18:05.733Z,-2.29
2016-11-29T07:19:05.715Z,-2.21
2016-11-29T07:20:05.696Z,-2.2
2016-11-29T07:21:05.683Z,-2.18
2016-11-29T07:22:05.674Z,-2.13
2016-11-29T07:23:05.641Z,-2.18
2016-11-29T07:24:05.625Z,-2.1
2016-11-29T07:25:05.610Z,-2.09
2016-11-29T07:26:05.594Z,-2.02
2016-11-29T07:27:05.573Z,-2.08
2016-11-29T07:28:05.562Z,-2.05
2016-11-29T07:29:05.545Z,-1.98
2016-11-29T07:30:05.526Z,-1.94
2016-11-29T07:31:05.507Z,-1.87
2016-11-29T07:32:05.491Z,-1.88
2016-11-29T07:33:05.472Z,-1.85
2016-11-29T07:34:05.457Z,-1.85
2016-11-29T07:35:05.438Z,-1.76
2016-11-29T07:36:05.418Z,-1.69
2016-11-29T07:37:05.402Z,-1.72
2016-11-29T07:38:05.385Z,-1.69
2016-11-29T07:39:05.367Z,-1.66
2016-11-29T07:40:05.352Z,-1.62
2016-11-29T07:41:05.333Z,-1.58
2016-11-29T07:42:05.324Z,-1.59
2016-11-29T07:43:05.610Z,-1.52
2016-11-29T07:44:05.285Z,-1.49
2016-11-29T07:45:05.301Z,-1.51
2016-11-29T07:46:05.551Z,-1.49
2016-11-29T07:47:05.234Z,-1.49
2016-11-29T07:48:05.215Z,-1.41
2016-11-29T07:49:05.199Z,-1.4
2016-11-29T07:50:05.184Z,-1.35
2016-11-29T07:51:05.166Z,-1.31
2016-11-29T07:52:05.168Z,-1.38
2016-11-29T07:53:05.131Z,-1.23
2016-11-29T07:54:05.113Z,-1.23
2016-11-29T07:55:05.104Z,-1.19
2016-11-29T07:56:05.087Z,-1.15
2016-11-29T07:57:05.071Z,-1.17
2016-11-29T07:58:05.048Z,-1.16
2016-11-29T07:59:05.034Z,-1.2
2016-11-29T08:00:05.017Z,-1.19
2016-11-29T08:01:05.002Z,-1.16
2016-11-29T08:02:04.979Z,-1.22
2016-11-29T08:03:05.001Z,-1.2
2016-11-29T08:04:04.955Z,-1.17
2016-11-29T08:05:04.932Z,-1.16
2016-11-29T08:06:04.949Z,-1.13
2016-11-29T08:07:04.906Z,-1.1
2016-11-29T08:08:04.887Z,-1.13
2016-11-29T08:09:04.873Z,-1.05
2016-11-29T08:10:04.861Z,-1.04
2016-11-29T08:11:04.836Z,-1.02
2016-11-29T08:12:04.813Z,-0.91
2016-11-29T08:13:04.803Z,-0.98
2016-11-29T08:14:04.782Z,-0.97
2016-11-29T08:15:04.774Z,-1.01
2016-11-29T08:16:04.759Z,-1.05
2016-11-29T08:17:04.735Z,-0.94
2016-11-29T08:18:04.714Z,-0.94
2016-11-29T08:19:04.710Z,-0.94
2016-11-29T08:20:04.683Z,-0.92
2016-11-29T08:21:04.675Z,-0.94
2016-11-29T08:22:04.652Z,-0.83
2016-11-29T08:23:04.638Z,-0.82
2016-11-29T08:24:04.926Z,-0.85
2016-11-29T08:25:04.609Z,-0.91
2016-11-29T08:26:04.596Z,-0.79
2016-11-29T08:27:04.574Z,-0.86
2016-11-29T08:28:04.560Z,-0.85
2016-11-29T08:29:04.846Z,-0.82
2016-11-29T08:30:04.524Z,-0.78
2016-11-29T08:31:04.504Z,-0.69
2016-11-29T08:32:04.517Z,-0.69
2016-11-29T08:33:04.475Z,-0.67
2016-11-29T08:34:04.458Z,-0.72
2016-11-29T08:35:04.449Z,-0.73
2016-11-29T08:36:04.431Z,-0.65
2016-11-29T08:37:04.412Z,-0.62
2016-11-29T08:38:04.390Z,-0.6
2016-11-29T08:39:04.375Z,-0.58
2016-11-29T08:40:04.365Z,-0.64
2016-11-29T08:41:04.351Z,-0.57
2016-11-29T08:42:04.337Z,-0.57
2016-11-29T08:43:04.323Z,-0.52
2016-11-29T08:44:04.295Z,-0.54
2016-11-29T08:45:04.588Z,-0.49
2016-11-29T08:46:04.262Z,-0.55
2016-11-29T08:47:04.256Z,-0.43
2016-11-29T08:48:04.241Z,-0.42
2016-11-29T08:49:04.223Z,-0.36
2016-11-29T08:50:04.202Z,-0.34
2016-11-29T08:51:04.182Z,-0.23
2016-11-29T08:52:04.175Z,-0.33
2016-11-29T08:53:04.488Z,-0.18
2016-11-29T08:54:04.146Z,-0.19
2016-11-29T08:55:04.328Z,-0.15
2016-11-29T08:56:04.104Z,-0.11
2016-11-29T08:57:04.089Z,-0.11
2016-11-29T08:58:04.078Z,-0.14
2016-11-29T08:59:04.063Z,0
2016-11-29T09:00:04.046Z,-0.01
2016-11-29T09:01:04.026Z,0.03
2016-11-29T09:02:04.016Z,0.1
2016-11-29T09:03:04.000Z,0.1
2016-11-29T09:04:03.976Z,0.2
2016-11-29T09:05:03.992Z,0.2
2016-11-29T09:06:03.944Z,0.26
2016-11-29T09:07:03.931Z,0.17
2016-11-29T09:08:03.915Z,0.29
2016-11-29T09:09:03.903Z,0.32
2016-11-29T09:10:03.885Z,0.29
2016-11-29T09:11:03.867Z,0.31
2016-11-29T09:12:03.855Z,0.32
2016-11-29T09:13:03.850Z,0.42
2016-11-29T09:14:03.820Z,0.49
2016-11-29T09:15:03.810Z,0.46
2016-11-29T09:16:03.794Z,0.51
2016-11-29T09:17:03.777Z,0.47
2016-11-29T09:18:03.761Z,0.58
2016-11-29T09:19:03.749Z,0.51
2016-11-29T09:20:03.727Z,0.58
2016-11-29T09:21:03.712Z,0.65
2016-11-29T09:22:03.700Z,0.7
2016-11-29T09:23:03.691Z,0.68
2016-11-29T09:24:03.673Z,0.65
2016-11-29T09:25:03.649Z,0.72
2016-11-29T09:26:03.643Z,0.75
2016-11-29T09:27:03.629Z,0.78
2016-11-29T09:28:03.614Z,0.78
2016-11-29T09:29:03.598Z,0.76
2016-11-29T09:30:03.584Z,0.88
2016-11-29T09:31:03.561Z,0.78
2016-11-29T09:32:03.551Z,0.87
2016-11-29T09:33:03.534Z,0.88
2016-11-29T09:34:03.519Z,0.87
2016-11-29T09:35:03.803Z,0.86
2016-11-29T09:36:03.486Z,0.88
2016-11-29T09:37:03.477Z,0.86
2016-11-29T09:38:03.455Z,0.97
2016-11-29T09:39:03.440Z,0.9
2016-11-29T09:40:03.430Z,0.96
2016-11-29T09:41:03.410Z,1.05
2016-11-29T09:42:03.396Z,1.09
2016-11-29T09:43:03.381Z,1.06
2016-11-29T09:44:03.365Z,1.09
2016-11-29T09:45:03.665Z,1.04
2016-11-29T09:46:03.336Z,0.97
2016-11-29T09:47:03.323Z,0.98
2016-11-29T09:48:03.310Z,1.14
2016-11-29T09:49:03.290Z,1.12
2016-11-29T09:50:03.284Z,1.15
2016-11-29T09:51:03.266Z,1.15
2016-11-29T09:52:03.248Z,1.12
2016-11-29T09:53:03.234Z,1.11
2016-11-29T09:54:03.218Z,1.18
2016-11-29T09:55:03.205Z,1.32
2016-11-29T09:56:03.392Z,1.2
2016-11-29T09:57:03.172Z,1.33
2016-11-29T09:58:03.163Z,1.36
2016-11-29T09:59:03.172Z,1.3
2016-11-29T10:00:03.131Z,1.36
2016-11-29T10:01:03.418Z,1.34
2016-11-29T10:02:03.301Z,1.3
2016-11-29T10:03:03.086Z,1.4
2016-11-29T10:04:03.076Z,1.42
2016-11-29T10:05:03.054Z,1.44
2016-11-29T10:06:03.041Z,1.45
2016-11-29T10:07:03.040Z,1.4
2016-11-29T10:08:03.311Z,1.41
2016-11-29T10:09:03.301Z,1.48
2016-11-29T10:10:02.981Z,1.5
2016-11-29T10:11:02.972Z,1.51
2016-11-29T10:12:02.953Z,1.59
2016-11-29T10:13:02.935Z,1.54
2016-11-29T10:14:02.927Z,1.58
2016-11-29T10:15:02.909Z,1.62
2016-11-29T10:16:02.899Z,1.55
2016-11-29T10:17:02.881Z,1.55
2016-11-29T10:18:02.872Z,1.58
2016-11-29T10:19:02.851Z,1.59
2016-11-29T10:20:02.837Z,1.6
2016-11-29T10:21:02.824Z,1.63
2016-11-29T10:22:02.823Z,1.58
2016-11-29T10:23:02.800Z,1.6
2016-11-29T10:24:02.786Z,1.68
2016-11-29T10:25:02.770Z,1.66
2016-11-29T10:26:02.757Z,1.73
2016-11-29T10:27:02.734Z,1.73
2016-11-29T10:28:02.760Z,1.79
2016-11-29T10:29:02.709Z,1.66
2016-11-29T10:30:02.700Z,1.77
2016-11-29T10:31:02.683Z,1.8
2016-11-29T10:32:02.666Z,1.81
2016-11-29T10:33:02.652Z,1.8
2016-11-29T10:34:02.851Z,1.8
2016-11-29T10:35:02.636Z,1.87
2016-11-29T10:36:02.607Z,1.9
2016-11-29T10:37:02.611Z,1.88
2016-11-29T10:38:02.581Z,1.9
2016-11-29T10:39:02.576Z,1.9
2016-11-29T10:40:02.553Z,1.98
2016-11-29T10:41:02.542Z,1.99
2016-11-29T10:42:02.525Z,2.05
2016-11-29T10:43:02.511Z,2.07
2016-11-29T10:44:02.506Z,2.06
2016-11-29T10:45:02.486Z,2.14
2016-11-29T10:46:02.470Z,2.07
2016-11-29T10:47:02.469Z,2.07
2016-11-29T10:48:02.436Z,2.17
2016-11-29T10:49:02.425Z,2.21
2016-11-29T10:50:02.411Z,2.31
2016-11-29T10:51:02.399Z,2.21
2016-11-29T10:52:02.383Z,2.35
2016-11-29T10:53:02.375Z,2.38
2016-11-29T10:54:02.361Z,2.35
2016-11-29T10:55:02.546Z,2.41
2016-11-29T10:56:02.327Z,2.41
2016-11-29T10:57:02.318Z,2.48
2016-11-29T10:58:02.297Z,2.46
2016-11-29T10:59:02.290Z,2.59
2016-11-29T11:00:02.279Z,2.53
2016-11-29T11:01:02.266Z,2.6
2016-11-29T11:02:02.243Z,2.57
2016-11-29T11:03:02.234Z,2.6
2016-11-29T11:04:02.222Z,2.54
2016-11-29T11:05:02.208Z,2.54
2016-11-29T11:06:02.188Z,2.71
2016-11-29T11:07:02.182Z,2.69
2016-11-29T11:08:02.471Z,2.75
2016-11-29T11:09:02.148Z,2.69
2016-11-29T11:10:02.143Z,2.82
2016-11-29T11:11:02.156Z,2.81
2016-11-29T11:12:02.110Z,2.81
2016-11-29T11:13:02.092Z,2.84
2016-11-29T11:14:02.078Z,2.84
2016-11-29T11:15:02.068Z,2.85
2016-11-29T11:16:02.052Z,2.85
2016-11-29T11:17:02.047Z,2.82
2016-11-29T11:18:02.027Z,2.9
2016-11-29T11:19:02.008Z,2.87
2016-11-29T11:20:02.003Z,2.89
2016-11-29T11:21:01.985Z,3.06
2016-11-29T11:22:01.968Z,3
2016-11-29T11:23:01.962Z,3.03
2016-11-29T11:24:01.945Z,3.14
2016-11-29T11:25:01.933Z,3.03
2016-11-29T11:26:01.917Z,3.11
2016-11-29T11:27:01.932Z,3.14
2016-11-29T11:28:01.888Z,3.06
2016-11-29T11:29:01.880Z,3.17
2016-11-29T11:30:01.892Z,3.06
2016-11-29T11:31:01.851Z,3.13
2016-11-29T11:32:01.839Z,3.11
2016-11-29T11:33:01.829Z,3.06
2016-11-29T11:34:01.816Z,3.2
2016-11-29T11:35:01.798Z,3.26
2016-11-29T11:36:01.780Z,3.21
2016-11-29T11:37:01.769Z,3.24
2016-11-29T11:38:01.758Z,3.21
2016-11-29T11:39:01.750Z,3.15
2016-11-29T11:40:01.733Z,3.24
2016-11-29T11:41:01.716Z,3.17
2016-11-29T11:42:01.709Z,3.26
2016-11-29T11:43:01.689Z,3.24
2016-11-29T11:44:01.684Z,3.18
2016-11-29T11:45:01.664Z,3.2
2016-11-29T11:46:01.854Z,3.26
2016-11-29T11:47:01.637Z,3.32
2016-11-29T11:48:01.622Z,3.23
2016-11-29T11:49:01.612Z,3.36
2016-11-29T11:50:01.594Z,3.29
2016-11-29T11:51:01.580Z,3.36
2016-11-29T11:52:01.570Z,3.21
2016-11-29T11:53:01.564Z,3.32
2016-11-29T11:54:01.546Z,3.33
2016-11-29T11:55:01.532Z,3.35
2016-11-29T11:56:01.519Z,3.33
2016-11-29T11:57:01.506Z,3.28
2016-11-29T11:58:01.495Z,3.26
2016-11-29T11:59:01.483Z,3.33
2016-11-29T12:00:01.476Z,3.42
2016-11-29T12:01:01.454Z,3.43
2016-11-29T12:02:01.439Z,3.45
2016-11-29T12:03:01.435Z,3.33
2016-11-29T12:04:01.415Z,3.47
2016-11-29T12:05:01.703Z,3.36
2016-11-29T12:06:01.392Z,3.39
2016-11-29T12:07:01.374Z,3.45
2016-11-29T12:08:01.361Z,3.42
2016-11-29T12:09:01.654Z,3.36
2016-11-29T12:10:01.341Z,3.39
2016-11-29T12:11:01.330Z,3.39
2016-11-29T12:12:01.310Z,3.51
2016-11-29T12:13:01.304Z,3.52
2016-11-29T12:14:01.285Z,3.51
2016-11-29T12:15:01.578Z,3.45
2016-11-29T12:16:01.255Z,3.48
2016-11-29T12:17:01.247Z,3.48
2016-11-29T12:18:01.229Z,3.52
2016-11-29T12:19:01.246Z,3.48
2016-11-29T12:20:01.207Z,3.36
2016-11-29T12:21:01.195Z,3.4
2016-11-29T12:22:01.177Z,3.42
2016-11-29T12:23:01.161Z,3.36
2016-11-29T12:24:01.156Z,3.42
2016-11-29T12:25:01.140Z,3.47
2016-11-29T12:26:01.130Z,3.43
2016-11-29T12:27:01.118Z,3.42
2016-11-29T12:28:01.108Z,3.35
2016-11-29T12:29:01.093Z,3.42
2016-11-29T12:30:01.074Z,3.29
2016-11-29T12:31:01.089Z,3.32
2016-11-29T12:32:01.054Z,3.39
2016-11-29T12:33:01.036Z,3.33
2016-11-29T12:34:01.021Z,3.26
2016-11-29T12:35:01.020Z,3.32
2016-11-29T12:36:00.994Z,3.26
2016-11-29T12:37:00.987Z,3.33
2016-11-29T12:38:00.974Z,3.23
2016-11-29T12:39:00.956Z,3.26
2016-11-29T12:40:00.947Z,3.4
2016-11-29T12:41:00.930Z,3.23
2016-11-29T12:42:00.920Z,3.32
2016-11-29T12:43:00.903Z,3.28
2016-11-29T12:44:00.897Z,3.31
2016-11-29T12:45:00.879Z,3.29
2016-11-29T12:46:00.871Z,3.35
2016-11-29T12:47:01.171Z,3.39
2016-11-29T12:48:00.842Z,3.39
2016-11-29T12:49:01.131Z,3.35
2016-11-29T12:50:00.815Z,3.33
2016-11-29T12:51:00.806Z,3.35
2016-11-29T12:52:00.786Z,3.29
2016-11-29T12:53:00.775Z,3.32
2016-11-29T12:54:01.063Z,3.35
2016-11-29T12:55:00.755Z,3.29
2016-11-29T12:56:00.742Z,3.32
2016-11-29T12:57:01.028Z,3.31
2016-11-29T12:58:00.709Z,3.26
2016-11-29T12:59:00.702Z,3.32
2016-11-29T13:00:00.680Z,3.23
2016-11-29T13:01:00.668Z,3.29
2016-11-29T13:02:00.654Z,3.26
2016-11-29T13:03:00.644Z,3.24